createdAt,value
2023-02-12T00:00:49.656Z,98009.16
2023-02-12T00:03:17.222Z,98012.09
2023-02-12T00:05:44.752Z,98012.88
2023-02-12T00:08:12.294Z,98003.56
2023-02-12T00:10:42.988Z,98012.59
2023-02-12T00:13:10.968Z,97997.16
2023-02-12T00:15:41.628Z,97995.66
2023-02-12T00:18:09.502Z,97999.66
2023-02-12T00:20:37.951Z,98003.75
2023-02-12T00:23:05.670Z,97993.09
2023-02-12T00:25:33.429Z,97997.31
2023-02-12T00:28:01.018Z,97990.53
2023-02-12T00:30:28.569Z,97994.06
2023-02-12T00:32:57.392Z,97994.81
2023-02-12T00:35:24.891Z,98002.88
2023-02-12T00:37:52.356Z,98009.56
2023-02-12T00:40:20.020Z,98017.13
2023-02-12T00:42:47.550Z,98017.66
2023-02-12T00:45:15.222Z,98017.88
2023-02-12T00:47:42.701Z,98025.56
2023-02-12T00:50:12.436Z,98024.75
2023-02-12T00:52:39.975Z,98023.19
2023-02-12T00:55:07.816Z,98020.41
2023-02-12T00:57:35.463Z,98016.78
2023-02-12T01:00:02.989Z,98018.25
2023-02-12T01:02:30.506Z,98022.44
2023-02-12T01:04:58.594Z,98025.53
2023-02-12T01:07:27.534Z,98037.03
2023-02-12T01:09:55.020Z,98032.22
2023-02-12T01:12:22.562Z,98035.22
2023-02-12T01:14:50.073Z,98039.38
2023-02-12T01:17:17.603Z,98039.97
2023-02-12T01:19:45.187Z,98042.38
2023-02-12T01:22:12.664Z,98029.81
2023-02-12T01:24:41.799Z,98033.88
2023-02-12T01:27:09.392Z,98035.09
2023-02-12T01:29:36.888Z,98032.03
2023-02-12T01:32:04.831Z,98031.88
2023-02-12T01:34:32.413Z,98033.66
2023-02-12T01:36:59.886Z,98027.13
2023-02-12T01:39:27.371Z,98040.69
2023-02-12T01:41:56.586Z,98033.44
2023-02-12T01:44:28.880Z,98024.84
2023-02-12T01:46:58.310Z,98028.63
2023-02-12T01:49:29.900Z,98033.09
2023-02-12T01:52:03.608Z,98021.31
2023-02-12T01:54:34.257Z,98024.59
2023-02-12T01:57:04.868Z,98022.06
2023-02-12T01:59:33.117Z,98020.72
2023-02-12T02:02:00.893Z,98035.63
2023-02-12T02:04:31.642Z,98032.16
2023-02-12T02:07:01.997Z,98040.34
2023-02-12T02:09:31.388Z,98035.94
2023-02-12T02:12:16.909Z,98038.53
2023-02-12T02:14:48.399Z,98042.22
2023-02-12T02:17:36.059Z,98041.16
2023-02-12T02:20:39.927Z,98045.97
2023-02-12T02:23:34.908Z,98042.16
2023-02-12T02:26:34.824Z,98030.53
2023-02-12T02:29:36.176Z,98035.50
2023-02-12T02:32:09.245Z,98026.25
2023-02-12T02:34:44.038Z,98018.44
2023-02-12T02:37:18.826Z,98019.66
2023-02-12T02:39:53.051Z,98034.69
2023-02-12T02:42:27.519Z,98032.47
2023-02-12T02:44:58.989Z,98027.22
2023-02-12T02:47:34.426Z,98034.78
2023-02-12T02:50:06.728Z,98052.56
2023-02-12T02:52:38.442Z,98044.84
2023-02-12T02:55:08.589Z,98047.78
2023-02-12T02:57:40.167Z,98046.88
2023-02-12T03:00:15.016Z,98049.19
2023-02-12T03:02:48.334Z,98051.59
2023-02-12T03:05:20.969Z,98042.09
2023-02-12T03:07:53.247Z,98049.94
2023-02-12T03:10:23.331Z,98048.53
2023-02-12T03:12:55.080Z,98044.00
2023-02-12T03:15:29.627Z,98050.44
2023-02-12T03:18:00.741Z,98045.91
2023-02-12T03:20:32.198Z,98048.34
2023-02-12T03:23:05.227Z,98050.91
2023-02-12T03:25:39.047Z,98061.63
2023-02-12T03:28:13.393Z,98057.56
2023-02-12T03:30:46.455Z,98064.72
2023-02-12T03:33:23.305Z,98062.50
2023-02-12T03:35:58.379Z,98063.59
2023-02-12T03:38:35.356Z,98070.81
2023-02-12T03:41:07.641Z,98070.06
2023-02-12T03:43:46.148Z,98069.13
2023-02-12T03:46:21.386Z,98070.16
2023-02-12T03:49:00.308Z,98064.88
2023-02-12T03:51:33.445Z,98061.41
2023-02-12T03:54:02.658Z,98064.84
2023-02-12T03:56:37.193Z,98061.56
2023-02-12T03:59:05.049Z,98053.25
2023-02-12T04:01:33.265Z,98053.38
2023-02-12T04:04:04.993Z,98051.78
2023-02-12T04:06:32.858Z,98045.28
2023-02-12T04:09:05.308Z,98054.06
2023-02-12T04:11:47.418Z,98055.84
2023-02-12T04:14:25.778Z,98067.31
2023-02-12T04:17:01.517Z,98061.97
2023-02-12T04:19:40.504Z,98055.81
2023-02-12T04:22:28.966Z,98052.75
2023-02-12T04:25:04.581Z,98063.78
2023-02-12T04:27:47.427Z,98062.34
2023-02-12T04:30:22.526Z,98065.25
2023-02-12T04:32:54.239Z,98063.66
2023-02-12T04:35:28.072Z,98072.38
2023-02-12T04:38:00.069Z,98065.72
2023-02-12T04:40:28.168Z,98078.31
2023-02-12T04:42:55.812Z,98076.78
2023-02-12T04:45:26.703Z,98081.84
2023-02-12T04:47:54.509Z,98082.59
2023-02-12T04:50:23.508Z,98084.28
2023-02-12T04:52:51.084Z,98081.94
2023-02-12T04:55:19.020Z,98079.66
2023-02-12T04:57:46.695Z,98082.84
2023-02-12T05:00:16.437Z,98085.28
2023-02-12T05:02:43.954Z,98091.72
2023-02-12T05:05:11.484Z,98092.25
2023-02-12T05:07:40.349Z,98084.03
2023-02-12T05:10:09.694Z,98083.97
2023-02-12T05:12:37.212Z,98081.59
2023-02-12T05:15:04.874Z,98090.59
2023-02-12T05:17:32.368Z,98090.25
2023-02-12T05:19:59.964Z,98083.88
2023-02-12T05:22:27.460Z,98094.00
2023-02-12T05:24:56.266Z,98088.72
2023-02-12T05:27:23.760Z,98092.75
2023-02-12T05:29:51.221Z,98097.16
2023-02-12T05:32:18.829Z,98097.13
2023-02-12T05:34:46.394Z,98106.38
2023-02-12T05:37:13.884Z,98109.16
2023-02-12T05:39:41.483Z,98110.84
2023-02-12T05:42:10.302Z,98110.00
2023-02-12T05:44:38.038Z,98114.91
2023-02-12T05:47:05.631Z,98107.16
2023-02-12T05:49:33.110Z,98103.19
2023-02-12T05:52:00.591Z,98107.13
2023-02-12T05:54:28.080Z,98105.88
2023-02-12T05:56:55.545Z,98103.19
2023-02-12T05:59:24.677Z,98108.16
2023-02-12T06:01:52.838Z,98107.25
2023-02-12T06:04:23.518Z,98110.94
2023-02-12T06:06:52.011Z,98105.97
2023-02-12T06:09:19.606Z,98113.16
2023-02-12T06:11:47.089Z,98110.53
2023-02-12T06:14:16.978Z,98119.91
2023-02-12T06:16:48.225Z,98119.91
2023-02-12T06:19:15.859Z,98122.91
2023-02-12T06:21:43.438Z,98124.88
2023-02-12T06:24:11.029Z,98126.53
2023-02-12T06:26:38.501Z,98131.47
2023-02-12T06:29:05.987Z,98135.22
2023-02-12T06:31:35.414Z,98141.47
2023-02-12T06:34:07.320Z,98142.91
2023-02-12T06:36:37.404Z,98145.91
2023-02-12T06:39:05.388Z,98140.03
2023-02-12T06:41:32.865Z,98141.28
2023-02-12T06:44:00.598Z,98131.09
2023-02-12T06:46:28.228Z,98144.63
2023-02-12T06:48:56.550Z,98140.53
2023-02-12T06:51:25.922Z,98144.44
2023-02-12T06:53:54.836Z,98140.47
2023-02-12T06:56:24.205Z,98140.50
2023-02-12T06:58:55.057Z,98146.06
2023-02-12T07:01:25.214Z,98154.19
2023-02-12T07:03:54.801Z,98143.47
2023-02-12T07:06:23.004Z,98156.13
2023-02-12T07:08:51.828Z,98153.72
2023-02-12T07:11:19.554Z,98153.19
2023-02-12T07:13:47.031Z,98155.09
2023-02-12T07:16:16.441Z,98150.31
2023-02-12T07:18:45.249Z,98157.28
2023-02-12T07:21:14.255Z,98159.56
2023-02-12T07:23:42.285Z,98156.25
2023-02-12T07:26:14.183Z,98163.78
2023-02-12T07:28:42.823Z,98163.88
2023-02-12T07:31:12.618Z,98161.91
2023-02-12T07:33:40.568Z,98163.28
2023-02-12T07:36:12.449Z,98166.53
2023-02-12T07:38:40.461Z,98160.88
2023-02-12T07:41:13.058Z,98166.84
2023-02-12T07:43:41.339Z,98160.75
2023-02-12T07:46:14.370Z,98168.47
2023-02-12T07:48:41.864Z,98165.06
2023-02-12T07:51:11.438Z,98158.63
2023-02-12T07:53:40.136Z,98162.19
2023-02-12T07:56:10.267Z,98153.34
2023-02-12T07:58:39.784Z,98168.16
2023-02-12T08:01:19.138Z,98158.94
2023-02-12T08:03:48.055Z,98177.06
2023-02-12T08:06:17.857Z,98179.09
2023-02-12T08:08:45.577Z,98173.97
2023-02-12T08:11:14.938Z,98179.25
2023-02-12T08:13:43.744Z,98183.38
2023-02-12T08:16:13.480Z,98185.63
2023-02-12T08:18:41.238Z,98184.03
2023-02-12T08:21:10.228Z,98179.00
2023-02-12T08:23:38.643Z,98183.69
2023-02-12T08:26:08.618Z,98184.97
2023-02-12T08:28:36.881Z,98184.00
2023-02-12T08:31:07.740Z,98175.38
2023-02-12T08:33:35.330Z,98166.03
2023-02-12T08:36:04.648Z,98167.09
2023-02-12T08:38:33.009Z,98166.16
2023-02-12T08:41:05.119Z,98164.84
2023-02-12T08:43:32.721Z,98163.72
2023-02-12T08:46:06.437Z,98165.16
2023-02-12T08:48:34.389Z,98159.59
2023-02-12T08:51:07.352Z,98164.16
2023-02-12T08:53:35.242Z,98166.38
2023-02-12T08:56:02.762Z,98166.78
2023-02-12T08:58:30.250Z,98163.72
2023-02-12T09:00:57.958Z,98163.19
2023-02-12T09:03:26.926Z,98172.22
2023-02-12T09:05:54.843Z,98166.88
2023-02-12T09:08:22.560Z,98175.41
2023-02-12T09:10:49.998Z,98174.94
2023-02-12T09:13:17.447Z,98181.13
2023-02-12T09:15:46.151Z,98182.94
2023-02-12T09:18:14.744Z,98179.25
2023-02-12T09:20:45.829Z,98177.78
2023-02-12T09:23:15.790Z,98176.41
2023-02-12T09:25:44.889Z,98178.75
2023-02-12T09:28:13.935Z,98180.44
2023-02-12T09:30:42.170Z,98182.44
2023-02-12T09:33:12.767Z,98181.00
2023-02-12T09:35:43.130Z,98180.41
2023-02-12T09:38:10.851Z,98182.22
2023-02-12T09:40:45.508Z,98174.72
2023-02-12T09:43:19.279Z,98176.88
2023-02-12T09:45:55.198Z,98180.38
2023-02-12T09:48:40.535Z,98193.00
2023-02-12T09:51:10.940Z,98194.63
2023-02-12T09:53:43.255Z,98187.44
2023-02-12T09:56:14.838Z,98187.13
2023-02-12T09:58:47.519Z,98193.94
2023-02-12T10:01:16.767Z,98182.47
2023-02-12T10:03:46.180Z,98182.38
2023-02-12T10:06:18.257Z,98185.59
2023-02-12T10:09:00.231Z,98192.09
2023-02-12T10:11:53.125Z,98187.44
2023-02-12T10:14:34.213Z,98185.09
2023-02-12T10:17:09.097Z,98185.88
2023-02-12T10:19:57.498Z,98185.78
2023-02-12T10:22:33.945Z,98177.38
2023-02-12T10:25:16.884Z,98185.03
2023-02-12T10:27:49.965Z,98183.44
2023-02-12T10:30:22.375Z,98189.09
2023-02-12T10:32:53.948Z,98184.25
2023-02-12T10:35:23.593Z,98192.78
2023-02-12T10:37:57.425Z,98189.13
2023-02-12T10:40:29.901Z,98189.63
2023-02-12T10:42:58.737Z,98191.19
2023-02-12T10:45:30.739Z,98189.22
2023-02-12T10:48:08.568Z,98191.06
2023-02-12T10:50:45.804Z,98188.34
2023-02-12T10:53:21.204Z,98186.66
2023-02-12T10:55:49.129Z,98189.38
2023-02-12T10:58:22.635Z,98192.66
2023-02-12T11:00:58.469Z,98185.50
2023-02-12T11:03:34.070Z,98180.41
2023-02-12T11:06:14.359Z,98180.31
2023-02-12T11:08:43.626Z,98177.28
2023-02-12T11:11:13.690Z,98175.56
2023-02-12T11:13:45.662Z,98174.00
2023-02-12T11:16:13.928Z,98169.25
2023-02-12T11:18:42.969Z,98169.28
2023-02-12T11:21:12.330Z,98170.28
2023-02-12T11:23:41.827Z,98169.03
2023-02-12T11:26:25.557Z,98173.66
2023-02-12T11:28:55.850Z,98163.13
2023-02-12T11:31:27.506Z,98159.88
2023-02-12T11:34:09.048Z,98167.50
2023-02-12T11:36:38.615Z,98162.25
2023-02-12T11:39:08.665Z,98166.88
2023-02-12T11:41:40.260Z,98171.56
2023-02-12T11:44:12.967Z,98169.84
2023-02-12T11:46:46.878Z,98167.81
2023-02-12T11:49:20.815Z,98169.56
2023-02-12T11:51:50.015Z,98165.47
2023-02-12T11:54:21.506Z,98159.03
2023-02-12T11:56:50.784Z,98165.75
2023-02-12T11:59:34.583Z,98166.44
2023-02-12T12:02:07.259Z,98162.69
2023-02-12T12:04:36.632Z,98166.19
2023-02-12T12:07:12.422Z,98163.88
2023-02-12T12:09:43.804Z,98164.44
2023-02-12T12:12:18.465Z,98167.25
2023-02-12T12:15:07.963Z,98162.59
2023-02-12T12:18:01.012Z,98160.59
2023-02-12T12:20:31.718Z,98166.38
2023-02-12T12:23:05.488Z,98161.31
2023-02-12T12:25:38.106Z,98161.66
2023-02-12T12:28:29.192Z,98164.53
2023-02-12T12:31:11.606Z,98155.88
2023-02-12T12:33:44.090Z,98158.28
2023-02-12T12:36:59.597Z,98159.75
2023-02-12T12:39:33.964Z,98160.22
2023-02-12T12:42:27.242Z,98152.00
2023-02-12T12:45:16.120Z,98151.28
2023-02-12T12:47:58.477Z,98155.66
2023-02-12T12:50:44.088Z,98148.88
2023-02-12T12:53:24.609Z,98154.16
2023-02-12T12:56:13.970Z,98154.59
2023-02-12T12:58:55.166Z,98158.69
2023-02-12T13:01:47.309Z,98154.06
2023-02-12T13:04:38.661Z,98151.22
2023-02-12T13:07:22.478Z,98156.59
2023-02-12T13:10:04.065Z,98152.09
2023-02-12T13:12:46.920Z,98155.63
2023-02-12T13:15:26.389Z,98146.56
2023-02-12T13:18:02.137Z,98153.19
2023-02-12T13:20:39.047Z,98152.22
2023-02-12T13:23:15.796Z,98146.94
2023-02-12T13:25:55.119Z,98145.97
2023-02-12T13:28:30.425Z,98150.44
2023-02-12T13:30:59.470Z,98156.84
2023-02-12T13:33:33.920Z,98147.91
2023-02-12T13:36:06.552Z,98145.97
2023-02-12T13:38:40.248Z,98147.88
2023-02-12T13:41:11.217Z,98151.94
2023-02-12T13:43:55.295Z,98151.00
2023-02-12T13:46:31.166Z,98157.06
2023-02-12T13:49:11.095Z,98150.31
2023-02-12T13:51:44.933Z,98151.03
2023-02-12T13:54:30.599Z,98145.22
2023-02-12T13:57:01.119Z,98151.00
2023-02-12T13:59:44.042Z,98144.41
2023-02-12T14:02:28.699Z,98146.47
2023-02-12T14:04:59.979Z,98142.34
2023-02-12T14:07:43.710Z,98142.69
2023-02-12T14:10:22.883Z,98142.09
2023-02-12T14:12:51.164Z,98145.34
2023-02-12T14:15:30.837Z,98142.09
2023-02-12T14:18:07.577Z,98138.22
2023-02-12T14:20:37.218Z,98142.31
2023-02-12T14:23:24.597Z,98143.06
2023-02-12T14:25:59.920Z,98142.34
2023-02-12T14:28:34.506Z,98147.63
2023-02-12T14:31:34.138Z,98136.97
2023-02-12T14:34:49.945Z,98145.91
2023-02-12T14:37:36.601Z,98140.91
2023-02-12T14:40:42.514Z,98132.69
2023-02-12T14:43:28.866Z,98133.50
2023-02-12T14:45:57.941Z,98135.84
2023-02-12T14:48:49.770Z,98133.81
2023-02-12T14:51:21.299Z,98125.84
2023-02-12T14:53:52.300Z,98132.38
2023-02-12T14:56:22.413Z,98130.53
2023-02-12T14:58:51.197Z,98132.44
2023-02-12T15:01:20.154Z,98126.38
2023-02-12T15:03:51.982Z,98129.66
2023-02-12T15:06:22.853Z,98120.59
2023-02-12T15:08:57.121Z,98129.75
2023-02-12T15:11:37.631Z,98131.47
2023-02-12T15:14:08.638Z,98118.41
2023-02-12T15:16:44.742Z,98122.09
2023-02-12T15:19:23.364Z,98124.50
2023-02-12T15:21:54.328Z,98126.16
2023-02-12T15:24:24.685Z,98118.44
2023-02-12T15:26:54.885Z,98117.44
2023-02-12T15:29:26.382Z,98125.06
2023-02-12T15:31:56.040Z,98116.59
2023-02-12T15:34:27.405Z,98120.09
2023-02-12T15:36:57.583Z,98121.91
2023-02-12T15:39:27.884Z,98120.94
2023-02-12T15:41:55.547Z,98121.44
2023-02-12T15:44:29.417Z,98116.25
2023-02-12T15:47:05.009Z,98114.09
2023-02-12T15:49:35.947Z,98115.50
2023-02-12T15:52:08.173Z,98113.34
2023-02-12T15:54:37.580Z,98110.22
2023-02-12T15:57:11.620Z,98105.47
2023-02-12T15:59:40.034Z,98109.09
2023-02-12T16:02:19.504Z,98104.75
2023-02-12T16:04:47.253Z,98117.44
2023-02-12T16:07:16.325Z,98112.16
2023-02-12T16:09:46.568Z,98118.66
2023-02-12T16:12:18.218Z,98109.97
2023-02-12T16:14:49.512Z,98105.25
2023-02-12T16:17:23.340Z,98107.13
2023-02-12T16:19:58.865Z,98112.06
2023-02-12T16:22:31.173Z,98110.91
2023-02-12T16:25:01.539Z,98118.91
2023-02-12T16:27:31.873Z,98116.50
2023-02-12T16:30:01.793Z,98114.69
2023-02-12T16:32:33.688Z,98128.28
2023-02-12T16:35:03.921Z,98122.38
2023-02-12T16:37:48.152Z,98131.31
2023-02-12T16:40:35.761Z,98140.81
2023-02-12T16:43:24.265Z,98140.19
2023-02-12T16:45:52.377Z,98139.44
2023-02-12T16:48:25.009Z,98139.97
2023-02-12T16:50:55.532Z,98146.81
2023-02-12T16:53:33.159Z,98145.97
2023-02-12T16:56:03.777Z,98136.31
2023-02-12T16:58:31.923Z,98143.66
2023-02-12T17:01:03.233Z,98147.25
2023-02-12T17:03:30.901Z,98155.69
2023-02-12T17:05:58.811Z,98152.31
2023-02-12T17:08:26.489Z,98165.72
2023-02-12T17:10:54.315Z,98169.38
2023-02-12T17:13:23.114Z,98167.78
2023-02-12T17:15:54.116Z,98170.41
2023-02-12T17:18:22.733Z,98175.69
2023-02-12T17:20:55.569Z,98170.97
2023-02-12T17:23:23.833Z,98172.66
2023-02-12T17:25:51.351Z,98175.03
2023-02-12T17:28:18.922Z,98178.41
2023-02-12T17:30:47.878Z,98173.50
2023-02-12T17:33:15.527Z,98175.94
2023-02-12T17:35:43.067Z,98178.38
2023-02-12T17:38:10.508Z,98178.84
2023-02-12T17:40:39.619Z,98182.91
2023-02-12T17:43:07.653Z,98185.47
2023-02-12T17:45:35.305Z,98174.81
2023-02-12T17:48:04.491Z,98184.16
2023-02-12T17:50:31.936Z,98183.38
2023-02-12T17:52:59.387Z,98179.72
2023-02-12T17:55:26.856Z,98169.31
2023-02-12T17:57:55.309Z,98180.34
2023-02-12T18:00:24.019Z,98174.69
2023-02-12T18:02:52.461Z,98177.56
2023-02-12T18:05:21.273Z,98173.97
2023-02-12T18:07:48.949Z,98172.91
2023-02-12T18:10:16.736Z,98174.63
2023-02-12T18:12:44.184Z,98186.53
2023-02-12T18:15:12.023Z,98179.03
2023-02-12T18:17:42.498Z,98186.47
2023-02-12T18:20:11.303Z,98185.50
2023-02-12T18:22:40.135Z,98187.13
2023-02-12T18:25:08.710Z,98177.75
2023-02-12T18:27:36.208Z,98180.94
2023-02-12T18:30:03.784Z,98184.78
2023-02-12T18:32:31.244Z,98176.59
2023-02-12T18:34:58.671Z,98185.00
2023-02-12T18:37:26.191Z,98181.00
2023-02-12T18:39:55.121Z,98181.88
2023-02-12T18:42:22.790Z,98178.94
2023-02-12T18:44:51.726Z,98176.69
2023-02-12T18:47:19.706Z,98185.63
2023-02-12T18:49:47.266Z,98182.38
2023-02-12T18:52:14.740Z,98174.50
2023-02-12T18:54:44.408Z,98173.34
2023-02-12T18:57:13.226Z,98167.81
2023-02-12T18:59:40.748Z,98179.09
2023-02-12T19:02:08.909Z,98181.59
2023-02-12T19:04:36.523Z,98181.72
2023-02-12T19:07:04.117Z,98181.72
2023-02-12T19:09:31.591Z,98169.28
2023-02-12T19:12:00.647Z,98175.88
2023-02-12T19:14:29.631Z,98179.16
2023-02-12T19:16:57.167Z,98175.97
2023-02-12T19:19:25.333Z,98177.50
2023-02-12T19:21:52.868Z,98185.16
2023-02-12T19:24:20.565Z,98186.16
2023-02-12T19:26:52.016Z,98180.91
2023-02-12T19:29:19.513Z,98185.94
2023-02-12T19:31:48.526Z,98185.31
2023-02-12T19:34:19.558Z,98188.09
2023-02-12T19:36:48.341Z,98189.72
2023-02-12T19:39:18.685Z,98189.81
2023-02-12T19:41:47.021Z,98191.03
2023-02-12T19:44:18.830Z,98194.47
2023-02-12T19:46:48.565Z,98199.53
2023-02-12T19:49:18.892Z,98191.63
2023-02-12T19:51:46.725Z,98198.16
2023-02-12T19:54:16.165Z,98199.88
2023-02-12T19:56:44.441Z,98197.63
2023-02-12T19:59:14.198Z,98196.25
2023-02-12T20:01:41.808Z,98195.34
2023-02-12T20:04:12.169Z,98189.44
2023-02-12T20:06:40.103Z,98187.72
2023-02-12T20:09:08.393Z,98184.19
2023-02-12T20:11:38.408Z,98190.13
2023-02-12T20:14:07.590Z,98188.84
2023-02-12T20:16:38.176Z,98184.19
2023-02-12T20:19:08.521Z,98186.16
2023-02-12T20:21:37.556Z,98187.69
2023-02-12T20:24:06.060Z,98195.16
2023-02-12T20:26:34.448Z,98199.66
2023-02-12T20:29:08.374Z,98198.13
2023-02-12T20:31:37.715Z,98193.94
2023-02-12T20:34:08.078Z,98194.75
2023-02-12T20:36:39.508Z,98196.91
2023-02-12T20:39:09.275Z,98196.59
2023-02-12T20:41:37.319Z,98201.31
2023-02-12T20:44:05.873Z,98203.13
2023-02-12T20:46:36.004Z,98195.53
2023-02-12T20:49:04.015Z,98203.56
2023-02-12T20:51:31.514Z,98194.19
2023-02-12T20:54:02.693Z,98196.91
2023-02-12T20:56:32.601Z,98196.06
2023-02-12T20:59:00.952Z,98200.59
2023-02-12T21:01:31.532Z,98194.53
2023-02-12T21:04:03.273Z,98201.38
2023-02-12T21:06:30.840Z,98190.41
2023-02-12T21:08:58.554Z,98206.03
2023-02-12T21:11:28.765Z,98201.69
2023-02-12T21:14:02.546Z,98205.56
2023-02-12T21:16:32.805Z,98199.38
2023-02-12T21:19:00.885Z,98206.41
2023-02-12T21:21:30.015Z,98199.59
2023-02-12T21:23:59.158Z,98195.31
2023-02-12T21:26:30.064Z,98203.88
2023-02-12T21:29:00.119Z,98194.22
2023-02-12T21:31:29.627Z,98197.06
2023-02-12T21:33:59.040Z,98195.06
2023-02-12T21:36:28.334Z,98193.50
2023-02-12T21:38:56.671Z,98197.00
2023-02-12T21:41:26.135Z,98195.34
2023-02-12T21:43:58.295Z,98190.44
2023-02-12T21:46:26.425Z,98187.59
2023-02-12T21:48:54.289Z,98192.44
2023-02-12T21:51:23.309Z,98186.66
2023-02-12T21:53:52.476Z,98186.25
2023-02-12T21:56:21.083Z,98186.41
2023-02-12T21:58:49.611Z,98183.72
2023-02-12T22:01:20.264Z,98181.06
2023-02-12T22:03:47.950Z,98186.00
2023-02-12T22:06:17.652Z,98183.72
2023-02-12T22:08:45.242Z,98180.06
2023-02-12T22:11:13.583Z,98181.13
2023-02-12T22:13:41.252Z,98182.31
2023-02-12T22:16:10.448Z,98181.06
2023-02-12T22:18:40.233Z,98188.03
2023-02-12T22:21:12.764Z,98199.00
2023-02-12T22:23:42.003Z,98187.66
2023-02-12T22:26:12.335Z,98196.59
2023-02-12T22:28:41.273Z,98185.50
2023-02-12T22:31:09.773Z,98184.09
2023-02-12T22:33:38.598Z,98182.56
2023-02-12T22:36:10.108Z,98191.34
2023-02-12T22:38:38.634Z,98191.66
2023-02-12T22:41:07.313Z,98195.28
2023-02-12T22:43:36.606Z,98187.28
2023-02-12T22:46:04.515Z,98187.22
2023-02-12T22:48:32.054Z,98187.63
2023-02-12T22:51:01.009Z,98188.03
2023-02-12T22:53:28.498Z,98192.41
2023-02-12T22:55:56.007Z,98195.59
2023-02-12T22:58:23.494Z,98192.25
2023-02-12T23:00:51.124Z,98190.19
2023-02-12T23:03:18.633Z,98189.19
2023-02-12T23:05:46.125Z,98184.09
2023-02-12T23:08:14.950Z,98198.31
2023-02-12T23:10:42.515Z,98191.38
2023-02-12T23:13:10.592Z,98187.19
2023-02-12T23:15:41.025Z,98191.06
2023-02-12T23:18:08.473Z,98189.91
2023-02-12T23:20:35.951Z,98191.94
2023-02-12T23:23:03.451Z,98189.22
2023-02-12T23:25:32.277Z,98181.84
2023-02-12T23:27:59.848Z,98193.56
2023-02-12T23:30:27.893Z,98188.28
2023-02-12T23:32:55.405Z,98187.03
2023-02-12T23:35:22.886Z,98184.13
2023-02-12T23:37:50.367Z,98179.47
2023-02-12T23:40:18.019Z,98180.69
2023-02-12T23:42:47.020Z,98170.34
2023-02-12T23:45:14.737Z,98171.72
2023-02-12T23:47:42.262Z,98165.59
2023-02-12T23:50:10.513Z,98176.63
2023-02-12T23:52:38.013Z,98167.84
2023-02-12T23:55:06.071Z,98172.34
2023-02-12T23:57:33.609Z,98171.16
